sensor_id;sensor_type;location;lat;lon;timestamp;temperature;humidity
11583;DHT22;34299;50.820;4.548;2022-10-18T12:25:18;30.80;98.80
11583;DHT22;34299;50.820;4.548;2022-10-18T12:27:49;30.50;96.40
11583;DHT22;34299;50.820;4.548;2022-10-18T12:30:25;30.20;96.20
11583;DHT22;34299;50.820;4.548;2022-10-18T12:33:04;30.00;96.10
11583;DHT22;34299;50.820;4.548;2022-10-18T12:35:41;30.20;95.90
11583;DHT22;34299;50.820;4.548;2022-10-18T12:38:19;30.30;96.40
11583;DHT22;34299;50.820;4.548;2022-10-18T12:40:49;30.20;95.00
11583;DHT22;34299;50.820;4.548;2022-10-18T12:43:20;29.80;95.70
11583;DHT22;34299;50.820;4.548;2022-10-18T12:45:52;30.00;95.50
11583;DHT22;34299;50.820;4.548;2022-10-18T12:48:29;29.80;95.70
11583;DHT22;34299;50.820;4.548;2022-10-18T12:50:59;29.50;95.70
11583;DHT22;34299;50.820;4.548;2022-10-18T12:53:29;30.00;96.30
11583;DHT22;34299;50.820;4.548;2022-10-18T12:56:31;30.10;95.20
11583;DHT22;34299;50.820;4.548;2022-10-18T13:02:25;30.70;95.90
11583;DHT22;34299;50.820;4.548;2022-10-18T13:04:52;30.70;95.10
11583;DHT22;34299;50.820;4.548;2022-10-18T13:07:35;31.20;94.70
11583;DHT22;34299;50.820;4.548;2022-10-18T19:05:49;13.50;99.90
11583;DHT22;34299;50.820;4.548;2022-10-18T19:08:17;13.30;99.90
11583;DHT22;34299;50.820;4.548;2022-10-18T19:10:44;13.30;99.90
11583;DHT22;34299;50.820;4.548;2022-10-18T19:13:14;13.30;99.90
11583;DHT22;34299;50.820;4.548;2022-10-18T19:15:40;13.40;99.90
11583;DHT22;34299;50.820;4.548;2022-10-18T19:18:07;13.50;99.90
11583;DHT22;34299;50.820;4.548;2022-10-18T19:20:34;13.50;99.90
11583;DHT22;34299;50.820;4.548;2022-10-18T19:23:01;13.40;99.90
11583;DHT22;34299;50.820;4.548;2022-10-18T19:25:29;13.30;99.90
11583;DHT22;34299;50.820;4.548;2022-10-18T19:27:56;13.10;99.90
11583;DHT22;34299;50.820;4.548;2022-10-18T19:30:23;12.90;99.90
11583;DHT22;34299;50.820;4.548;2022-10-18T19:32:50;12.90;99.90
11583;DHT22;34299;50.820;4.548;2022-10-18T19:35:22;12.80;99.90
11583;DHT22;34299;50.820;4.548;2022-10-18T19:37:49;12.70;99.90
11583;DHT22;34299;50.820;4.548;2022-10-18T19:40:16;12.50;99.90
11583;DHT22;34299;50.820;4.548;2022-10-18T19:42:44;12.50;99.90
11583;DHT22;34299;50.820;4.548;2022-10-18T19:45:11;12.70;99.90
11583;DHT22;34299;50.820;4.548;2022-10-18T19:47:38;12.60;99.90
11583;DHT22;34299;50.820;4.548;2022-10-18T19:50:06;12.50;99.90
11583;DHT22;34299;50.820;4.548;2022-10-18T19:52:33;12.40;99.90
11583;DHT22;34299;50.820;4.548;2022-10-18T19:55:00;12.30;99.90
11583;DHT22;34299;50.820;4.548;2022-10-18T19:57:27;12.20;99.90
11583;DHT22;34299;50.820;4.548;2022-10-18T19:59:55;12.20;99.90
11583;DHT22;34299;50.820;4.548;2022-10-18T20:02:22;12.20;99.90
11583;DHT22;34299;50.820;4.548;2022-10-18T20:04:49;12.10;99.90
11583;DHT22;34299;50.820;4.548;2022-10-18T20:07:16;12.10;99.90
11583;DHT22;34299;50.820;4.548;2022-10-18T20:09:43;12.00;99.90
11583;DHT22;34299;50.820;4.548;2022-10-18T20:12:11;11.90;99.90
11583;DHT22;34299;50.820;4.548;2022-10-18T20:14:38;11.90;99.90
11583;DHT22;34299;50.820;4.548;2022-10-18T20:17:06;11.90;99.90
11583;DHT22;34299;50.820;4.548;2022-10-18T20:19:36;11.90;99.90
11583;DHT22;34299;50.820;4.548;2022-10-18T20:22:03;11.80;99.90
11583;DHT22;34299;50.820;4.548;2022-10-18T20:24:30;11.80;99.90
11583;DHT22;34299;50.820;4.548;2022-10-18T20:26:59;11.70;99.90
11583;DHT22;34299;50.820;4.548;2022-10-18T20:29:26;11.60;99.90
11583;DHT22;34299;50.820;4.548;2022-10-18T20:31:54;11.50;99.90
11583;DHT22;34299;50.820;4.548;2022-10-18T20:36:53;11.60;99.90
11583;DHT22;34299;50.820;4.548;2022-10-18T20:59:05;11.80;99.90
11583;DHT22;34299;50.820;4.548;2022-10-18T21:01:35;11.70;99.90
11583;DHT22;34299;50.820;4.548;2022-10-18T21:04:04;11.70;99.90
11583;DHT22;34299;50.820;4.548;2022-10-18T21:06:33;11.70;99.90
11583;DHT22;34299;50.820;4.548;2022-10-18T21:09:03;11.70;99.90
11583;DHT22;34299;50.820;4.548;2022-10-18T21:11:34;11.70;99.90
11583;DHT22;34299;50.820;4.548;2022-10-18T21:14:02;11.70;99.90
11583;DHT22;34299;50.820;4.548;2022-10-18T21:16:29;11.40;99.90
11583;DHT22;34299;50.820;4.548;2022-10-18T21:19:00;11.40;99.90
11583;DHT22;34299;50.820;4.548;2022-10-18T21:21:27;11.30;99.90
11583;DHT22;34299;50.820;4.548;2022-10-18T21:23:54;11.00;99.90
11583;DHT22;34299;50.820;4.548;2022-10-18T21:26:24;11.00;99.90
11583;DHT22;34299;50.820;4.548;2022-10-18T21:28:52;11.00;99.90
11583;DHT22;34299;50.820;4.548;2022-10-18T21:31:21;10.90;99.90
11583;DHT22;34299;50.820;4.548;2022-10-18T21:33:51;11.00;99.90
11583;DHT22;34299;50.820;4.548;2022-10-18T21:36:19;10.90;99.90
11583;DHT22;34299;50.820;4.548;2022-10-18T21:38:46;10.80;99.90
11583;DHT22;34299;50.820;4.548;2022-10-18T21:41:14;10.80;99.90
11583;DHT22;34299;50.820;4.548;2022-10-18T21:43:44;10.70;99.90
11583;DHT22;34299;50.820;4.548;2022-10-18T21:46:13;10.80;99.90
11583;DHT22;34299;50.820;4.548;2022-10-18T21:48:42;10.60;99.90
11583;DHT22;34299;50.820;4.548;2022-10-18T21:51:09;10.50;99.90
11583;DHT22;34299;50.820;4.548;2022-10-18T21:53:36;10.40;99.90
11583;DHT22;34299;50.820;4.548;2022-10-18T21:56:05;10.60;99.90
11583;DHT22;34299;50.820;4.548;2022-10-18T21:58:32;10.60;99.90
11583;DHT22;34299;50.820;4.548;2022-10-18T22:01:01;10.50;99.90
11583;DHT22;34299;50.820;4.548;2022-10-18T22:03:31;10.50;99.90
11583;DHT22;34299;50.820;4.548;2022-10-18T22:05:59;10.50;99.90
11583;DHT22;34299;50.820;4.548;2022-10-18T22:08:27;10.40;99.90
11583;DHT22;34299;50.820;4.548;2022-10-18T22:10:56;10.30;99.90
11583;DHT22;34299;50.820;4.548;2022-10-18T22:13:23;10.20;99.90
11583;DHT22;34299;50.820;4.548;2022-10-18T22:15:50;10.10;99.90
11583;DHT22;34299;50.820;4.548;2022-10-18T22:18:18;10.00;99.90
11583;DHT22;34299;50.820;4.548;2022-10-18T22:20:52;10.10;99.90
11583;DHT22;34299;50.820;4.548;2022-10-18T22:23:19;10.10;99.90
11583;DHT22;34299;50.820;4.548;2022-10-18T22:25:46;10.20;99.90
11583;DHT22;34299;50.820;4.548;2022-10-18T22:28:13;10.40;99.90
11583;DHT22;34299;50.820;4.548;2022-10-18T22:30:40;10.50;99.90
11583;DHT22;34299;50.820;4.548;2022-10-18T22:33:07;10.50;99.90
11583;DHT22;34299;50.820;4.548;2022-10-18T22:35:35;10.60;99.90
11583;DHT22;34299;50.820;4.548;2022-10-18T22:38:02;10.70;99.90
11583;DHT22;34299;50.820;4.548;2022-10-18T22:40:29;10.80;99.90
11583;DHT22;34299;50.820;4.548;2022-10-18T22:42:56;11.10;99.90
11583;DHT22;34299;50.820;4.548;2022-10-18T22:45:23;11.10;99.90
11583;DHT22;34299;50.820;4.548;2022-10-18T22:47:49;11.10;99.90
11583;DHT22;34299;50.820;4.548;2022-10-18T22:50:16;11.10;99.90
11583;DHT22;34299;50.820;4.548;2022-10-18T22:52:45;11.00;99.90
11583;DHT22;34299;50.820;4.548;2022-10-18T22:55:11;11.00;99.90
11583;DHT22;34299;50.820;4.548;2022-10-18T22:57:38;10.90;99.90
11583;DHT22;34299;50.820;4.548;2022-10-18T23:00:06;11.00;99.90
11583;DHT22;34299;50.820;4.548;2022-10-18T23:02:33;11.00;99.90
11583;DHT22;34299;50.820;4.548;2022-10-18T23:05:00;11.10;99.90
11583;DHT22;34299;50.820;4.548;2022-10-18T23:07:27;11.10;99.90
11583;DHT22;34299;50.820;4.548;2022-10-18T23:09:55;11.00;99.90
11583;DHT22;34299;50.820;4.548;2022-10-18T23:12:22;10.90;99.90
11583;DHT22;34299;50.820;4.548;2022-10-18T23:14:49;10.90;99.90
11583;DHT22;34299;50.820;4.548;2022-10-18T23:17:16;10.90;99.90
11583;DHT22;34299;50.820;4.548;2022-10-18T23:19:43;11.00;99.90
11583;DHT22;34299;50.820;4.548;2022-10-18T23:22:10;11.00;99.90
11583;DHT22;34299;50.820;4.548;2022-10-18T23:24:39;10.90;99.90
11583;DHT22;34299;50.820;4.548;2022-10-18T23:27:07;10.80;99.90
11583;DHT22;34299;50.820;4.548;2022-10-18T23:29:34;10.70;99.90
11583;DHT22;34299;50.820;4.548;2022-10-18T23:32:01;10.60;99.90
11583;DHT22;34299;50.820;4.548;2022-10-18T23:34:28;10.50;99.90
11583;DHT22;34299;50.820;4.548;2022-10-18T23:36:54;10.40;99.90
11583;DHT22;34299;50.820;4.548;2022-10-18T23:39:21;10.40;99.90
11583;DHT22;34299;50.820;4.548;2022-10-18T23:41:48;10.30;99.90
11583;DHT22;34299;50.820;4.548;2022-10-18T23:44:16;10.40;99.90
11583;DHT22;34299;50.820;4.548;2022-10-18T23:46:43;10.40;99.90
11583;DHT22;34299;50.820;4.548;2022-10-18T23:49:10;10.40;99.90
11583;DHT22;34299;50.820;4.548;2022-10-18T23:51:37;10.50;99.90
11583;DHT22;34299;50.820;4.548;2022-10-18T23:54:04;10.50;99.90
11583;DHT22;34299;50.820;4.548;2022-10-18T23:56:31;10.60;99.90
11583;DHT22;34299;50.820;4.548;2022-10-18T23:58:58;10.70;99.90
